sensor_id;sensor_type;location;lat;lon;timestamp;pressure;altitude;pressure_sealevel;temperature;humidity
55032;BME280;40928;51.076;7.950;2022-09-09T00:04:29;96468.41;;;13.72;98.56
55032;BME280;40928;51.076;7.950;2022-09-09T00:12:26;96455.03;;;13.57;99.64
55032;BME280;40928;51.076;7.950;2022-09-09T00:14:56;96456.16;;;13.50;100.00
55032;BME280;40928;51.076;7.950;2022-09-09T00:22:19;96451.56;;;13.51;100.00
55032;BME280;40928;51.076;7.950;2022-09-09T00:24:51;96457.75;;;13.51;100.00
55032;BME280;40928;51.076;7.950;2022-09-09T00:27:41;96451.84;;;13.54;100.00
55032;BME280;40928;51.076;7.950;2022-09-09T00:30:22;96455.03;;;13.57;100.00
55032;BME280;40928;51.076;7.950;2022-09-09T00:32:59;96448.06;;;13.55;100.00
55032;BME280;40928;51.076;7.950;2022-09-09T00:35:41;96446.75;;;13.58;100.00
55032;BME280;40928;51.076;7.950;2022-09-09T00:38:24;96449.16;;;13.60;100.00
55032;BME280;40928;51.076;7.950;2022-09-09T00:40:55;96452.34;;;13.67;100.00
55032;BME280;40928;51.076;7.950;2022-09-09T00:43:32;96453.63;;;13.80;100.00
55032;BME280;40928;51.076;7.950;2022-09-09T00:57:14;96445.91;;;13.63;100.00
55032;BME280;40928;51.076;7.950;2022-09-09T00:59:47;96452.31;;;13.72;100.00
55032;BME280;40928;51.076;7.950;2022-09-09T01:02:24;96449.94;;;13.70;100.00
55032;BME280;40928;51.076;7.950;2022-09-09T01:04:51;96450.72;;;13.76;100.00
55032;BME280;40928;51.076;7.950;2022-09-09T01:07:18;96442.41;;;13.78;100.00
55032;BME280;40928;51.076;7.950;2022-09-09T01:09:58;96442.66;;;13.71;100.00
55032;BME280;40928;51.076;7.950;2022-09-09T01:12:48;96439.44;;;13.74;100.00
55032;BME280;40928;51.076;7.950;2022-09-09T01:15:22;96451.53;;;13.72;100.00
55032;BME280;40928;51.076;7.950;2022-09-09T01:18:02;96441.59;;;13.72;100.00
55032;BME280;40928;51.076;7.950;2022-09-09T01:20:43;96450.72;;;13.71;100.00
55032;BME280;40928;51.076;7.950;2022-09-09T01:26:16;96444.81;;;13.74;100.00
55032;BME280;40928;51.076;7.950;2022-09-09T01:28:46;96433.53;;;13.77;100.00
55032;BME280;40928;51.076;7.950;2022-09-09T01:31:38;96438.13;;;13.77;100.00
55032;BME280;40928;51.076;7.950;2022-09-09T01:34:13;96437.84;;;13.73;100.00
55032;BME280;40928;51.076;7.950;2022-09-09T01:36:47;96440.56;;;13.68;100.00
55032;BME280;40928;51.076;7.950;2022-09-09T01:39:16;96433.03;;;13.60;100.00
55032;BME280;40928;51.076;7.950;2022-09-09T01:41:43;96426.09;;;13.53;100.00
55032;BME280;40928;51.076;7.950;2022-09-09T01:44:12;96427.97;;;13.53;100.00
55032;BME280;40928;51.076;7.950;2022-09-09T01:46:40;96437.38;;;13.50;100.00
55032;BME280;40928;51.076;7.950;2022-09-09T01:49:12;96434.69;;;13.50;100.00
55032;BME280;40928;51.076;7.950;2022-09-09T01:51:39;96433.88;;;13.50;100.00
55032;BME280;40928;51.076;7.950;2022-09-09T01:54:10;96441.13;;;13.44;100.00
55032;BME280;40928;51.076;7.950;2022-09-09T02:00:10;96452.91;;;13.59;100.00
55032;BME280;40928;51.076;7.950;2022-09-09T02:03:06;96447.53;;;13.59;100.00
55032;BME280;40928;51.076;7.950;2022-09-09T02:08:40;96439.47;;;13.64;100.00
55032;BME280;40928;51.076;7.950;2022-09-09T02:11:24;96441.63;;;13.57;100.00
55032;BME280;40928;51.076;7.950;2022-09-09T02:14:23;96439.78;;;13.62;100.00
55032;BME280;40928;51.076;7.950;2022-09-09T02:16:56;96436.00;;;13.58;100.00
55032;BME280;40928;51.076;7.950;2022-09-09T02:19:37;96442.16;;;13.59;100.00
55032;BME280;40928;51.076;7.950;2022-09-09T02:22:12;96444.31;;;13.57;100.00
55032;BME280;40928;51.076;7.950;2022-09-09T02:24:39;96447.50;;;13.74;100.00
55032;BME280;40928;51.076;7.950;2022-09-09T02:27:31;96445.94;;;13.58;100.00
55032;BME280;40928;51.076;7.950;2022-09-09T02:29:59;96448.59;;;13.63;100.00
55032;BME280;40928;51.076;7.950;2022-09-09T02:32:42;96448.59;;;13.58;100.00
55032;BME280;40928;51.076;7.950;2022-09-09T02:35:18;96452.59;;;13.70;100.00
55032;BME280;40928;51.076;7.950;2022-09-09T02:37:45;96452.34;;;13.67;100.00
55032;BME280;40928;51.076;7.950;2022-09-09T02:40:13;96455.28;;;13.65;100.00
55032;BME280;40928;51.076;7.950;2022-09-09T02:42:47;96453.16;;;13.67;100.00
55032;BME280;40928;51.076;7.950;2022-09-09T02:45:17;96460.66;;;13.70;100.00
55032;BME280;40928;51.076;7.950;2022-09-09T02:51:14;96449.94;;;13.70;100.00
55032;BME280;40928;51.076;7.950;2022-09-09T02:53:53;96448.03;;;13.71;100.00
55032;BME280;40928;51.076;7.950;2022-09-09T02:56:23;96440.03;;;13.66;100.00
55032;BME280;40928;51.076;7.950;2022-09-09T02:58:54;96447.00;;;13.67;100.00
55032;BME280;40928;51.076;7.950;2022-09-09T03:01:20;96446.72;;;13.63;100.00
55032;BME280;40928;51.076;7.950;2022-09-09T03:03:46;96452.63;;;13.65;100.00
55032;BME280;40928;51.076;7.950;2022-09-09T03:06:14;96442.16;;;13.59;100.00
55032;BME280;40928;51.076;7.950;2022-09-09T03:08:41;96435.75;;;13.54;100.00
55032;BME280;40928;51.076;7.950;2022-09-09T03:11:12;96448.06;;;13.66;100.00
55032;BME280;40928;51.076;7.950;2022-09-09T03:13:40;96444.03;;;13.68;100.00
55032;BME280;40928;51.076;7.950;2022-09-09T03:16:06;96442.94;;;13.69;100.00
55032;BME280;40928;51.076;7.950;2022-09-09T03:18:37;96439.97;;;13.71;100.00
55032;BME280;40928;51.076;7.950;2022-09-09T03:21:04;96441.88;;;13.70;100.00
55032;BME280;40928;51.076;7.950;2022-09-09T03:23:29;96442.94;;;13.69;100.00
55032;BME280;40928;51.076;7.950;2022-09-09T03:25:57;96448.88;;;13.61;100.00
55032;BME280;40928;51.076;7.950;2022-09-09T03:28:33;96446.47;;;13.65;100.00
55032;BME280;40928;51.076;7.950;2022-09-09T03:31:04;96447.78;;;13.67;100.00
55032;BME280;40928;51.076;7.950;2022-09-09T03:33:34;96447.25;;;13.65;100.00
55032;BME280;40928;51.076;7.950;2022-09-09T03:36:02;96448.06;;;13.66;100.00
55032;BME280;40928;51.076;7.950;2022-09-09T03:38:28;96451.28;;;13.68;100.00
55032;BME280;40928;51.076;7.950;2022-09-09T03:40:55;96446.16;;;13.66;100.00
55032;BME280;40928;51.076;7.950;2022-09-09T03:43:24;96450.75;;;13.66;100.00
55032;BME280;40928;51.076;7.950;2022-09-09T03:45:51;96445.38;;;13.66;100.00
55032;BME280;40928;51.076;7.950;2022-09-09T03:48:18;96445.91;;;13.68;100.00
55032;BME280;40928;51.076;7.950;2022-09-09T03:50:46;96436.81;;;13.64;100.00
55032;BME280;40928;51.076;7.950;2022-09-09T03:53:12;96445.94;;;13.58;100.00
55032;BME280;40928;51.076;7.950;2022-09-09T03:55:38;96446.75;;;13.58;100.00
55032;BME280;40928;51.076;7.950;2022-09-09T03:58:04;96449.41;;;13.63;100.00
55032;BME280;40928;51.076;7.950;2022-09-09T04:00:29;96446.47;;;13.60;100.00
55032;BME280;40928;51.076;7.950;2022-09-09T04:02:56;96446.47;;;13.60;100.00
55032;BME280;40928;51.076;7.950;2022-09-09T04:05:22;96456.13;;;13.61;100.00
55032;BME280;40928;51.076;7.950;2022-09-09T04:07:48;96444.59;;;13.55;100.00
55032;BME280;40928;51.076;7.950;2022-09-09T04:10:13;96445.97;;;13.52;100.00
55032;BME280;40928;51.076;7.950;2022-09-09T04:12:41;96437.09;;;13.52;100.00
55032;BME280;40928;51.076;7.950;2022-09-09T04:15:07;96441.66;;;13.51;100.00
55032;BME280;40928;51.076;7.950;2022-09-09T04:17:34;96445.13;;;13.57;100.00
55032;BME280;40928;51.076;7.950;2022-09-09T04:20:02;96445.41;;;13.50;100.00
55032;BME280;40928;51.076;7.950;2022-09-09T04:22:27;96433.34;;;13.53;100.00
55032;BME280;40928;51.076;7.950;2022-09-09T04:24:53;96442.47;;;13.52;100.00
55032;BME280;40928;51.076;7.950;2022-09-09T04:27:19;96440.84;;;13.56;100.00
55032;BME280;40928;51.076;7.950;2022-09-09T04:29:45;96434.41;;;13.57;100.00
55032;BME280;40928;51.076;7.950;2022-09-09T04:32:12;96432.25;;;13.54;100.00
55032;BME280;40928;51.076;7.950;2022-09-09T04:34:38;96439.78;;;13.57;100.00
55032;BME280;40928;51.076;7.950;2022-09-09T04:37:04;96435.72;;;13.60;100.00
55032;BME280;40928;51.076;7.950;2022-09-09T04:39:30;96441.09;;;13.60;100.00
55032;BME280;40928;51.076;7.950;2022-09-09T04:41:58;96441.13;;;13.54;100.00
55032;BME280;40928;51.076;7.950;2022-09-09T04:44:24;96443.78;;;13.60;100.00
55032;BME280;40928;51.076;7.950;2022-09-09T04:46:50;96438.16;;;13.51;100.00
55032;BME280;40928;51.076;7.950;2022-09-09T04:49:16;96443.81;;;13.49;100.00
55032;BME280;40928;51.076;7.950;2022-09-09T04:51:42;96436.56;;;13.60;100.00
55032;BME280;40928;51.076;7.950;2022-09-09T04:54:08;96437.91;;;13.52;100.00
55032;BME280;40928;51.076;7.950;2022-09-09T04:56:42;96447.56;;;13.48;100.00
55032;BME280;40928;51.076;7.950;2022-09-09T04:59:09;96447.28;;;13.34;100.00
55032;BME280;40928;51.076;7.950;2022-09-09T05:01:41;96444.88;;;13.33;100.00
55032;BME280;40928;51.076;7.950;2022-09-09T05:04:07;96445.13;;;13.36;100.00
55032;BME280;40928;51.076;7.950;2022-09-09T05:06:34;96451.84;;;13.39;100.00
55032;BME280;40928;51.076;7.950;2022-09-09T05:09:02;96438.72;;;13.43;100.00
55032;BME280;40928;51.076;7.950;2022-09-09T05:11:31;96443.03;;;13.44;100.00
55032;BME280;40928;51.076;7.950;2022-09-09T05:14:06;96435.78;;;13.44;100.00
55032;BME280;40928;51.076;7.950;2022-09-09T05:16:31;96447.28;;;13.39;100.00
55032;BME280;40928;51.076;7.950;2022-09-09T05:18:57;96447.03;;;13.46;100.00
55032;BME280;40928;51.076;7.950;2022-09-09T05:21:24;96444.34;;;13.46;100.00
55032;BME280;40928;51.076;7.950;2022-09-09T05:23:54;96445.16;;;13.47;100.00
55032;BME280;40928;51.076;7.950;2022-09-09T05:26:21;96447.28;;;13.39;100.00
55032;BME280;40928;51.076;7.950;2022-09-09T05:28:49;96445.72;;;13.44;100.00
55032;BME280;40928;51.076;7.950;2022-09-09T05:31:16;96443.28;;;13.52;100.00
55032;BME280;40928;51.076;7.950;2022-09-09T05:33:45;96443.53;;;13.51;100.00
55032;BME280;40928;51.076;7.950;2022-09-09T05:36:14;96459.34;;;13.58;100.00
55032;BME280;40928;51.076;7.950;2022-09-09T05:38:41;96453.44;;;13.55;100.00
55032;BME280;40928;51.076;7.950;2022-09-09T05:41:07;96454.78;;;13.58;100.00
55032;BME280;40928;51.076;7.950;2022-09-09T05:43:34;96452.91;;;13.69;100.00
55032;BME280;40928;51.076;7.950;2022-09-09T05:46:07;96457.97;;;13.65;100.00
55032;BME280;40928;51.076;7.950;2022-09-09T05:48:35;96456.66;;;13.68;100.00
55032;BME280;40928;51.076;7.950;2022-09-09T05:51:01;96457.97;;;13.76;100.00
55032;BME280;40928;51.076;7.950;2022-09-09T05:53:29;96463.59;;;13.79;100.00
55032;BME280;40928;51.076;7.950;2022-09-09T05:56:02;96466.81;;;13.76;100.00
55032;BME280;40928;51.076;7.950;2022-09-09T05:58:31;96465.97;;;13.81;100.00
55032;BME280;40928;51.076;7.950;2022-09-09T06:01:20;96461.16;;;13.88;100.00
55032;BME280;40928;51.076;7.950;2022-09-09T06:03:47;96470.75;;;13.94;100.00
55032;BME280;40928;51.076;7.950;2022-09-09T06:06:16;96463.00;;;13.93;100.00
55032;BME280;40928;51.076;7.950;2022-09-09T06:08:43;96459.75;;;14.01;100.00
55032;BME280;40928;51.076;7.950;2022-09-09T06:13:42;96466.38;;;14.19;100.00
55032;BME280;40928;51.076;7.950;2022-09-09T06:16:19;96462.59;;;14.25;100.00
55032;BME280;40928;51.076;7.950;2022-09-09T06:18:45;96463.13;;;14.27;100.00
55032;BME280;40928;51.076;7.950;2022-09-09T06:21:16;96463.66;;;14.29;100.00
55032;BME280;40928;51.076;7.950;2022-09-09T06:23:42;96459.63;;;14.32;100.00
55032;BME280;40928;51.076;7.950;2022-09-09T06:28:38;96462.81;;;14.34;100.00
55032;BME280;40928;51.076;7.950;2022-09-09T06:31:10;96474.06;;;14.41;100.00
55032;BME280;40928;51.076;7.950;2022-09-09T06:33:38;96472.47;;;14.35;100.00
55032;BME280;40928;51.076;7.950;2022-09-09T06:36:12;96470.91;;;14.29;100.00
55032;BME280;40928;51.076;7.950;2022-09-09T06:38:39;96463.38;;;14.31;100.00
55032;BME280;40928;51.076;7.950;2022-09-09T06:41:05;96463.63;;;14.35;100.00
55032;BME280;40928;51.076;7.950;2022-09-09T06:43:32;96466.00;;;14.46;100.00
55032;BME280;40928;51.076;7.950;2022-09-09T06:46:03;96470.22;;;14.58;100.00
55032;BME280;40928;51.076;7.950;2022-09-09T06:48:31;96470.00;;;14.49;100.00
55032;BME280;40928;51.076;7.950;2022-09-09T06:51:09;96464.84;;;14.53;100.00
55032;BME280;40928;51.076;7.950;2022-09-09T06:53:38;96477.22;;;14.54;100.00
55032;BME280;40928;51.076;7.950;2022-09-09T06:58:40;96479.06;;;14.58;100.00
55032;BME280;40928;51.076;7.950;2022-09-09T07:01:27;96476.66;;;14.57;100.00
55032;BME280;40928;51.076;7.950;2022-09-09T07:03:56;96470.75;;;14.55;100.00
55032;BME280;40928;51.076;7.950;2022-09-09T07:06:28;96470.00;;;14.44;100.00
55032;BME280;40928;51.076;7.950;2022-09-09T07:09:09;96469.22;;;14.43;100.00
55032;BME280;40928;51.076;7.950;2022-09-09T07:11:42;96470.00;;;14.49;100.00
55032;BME280;40928;51.076;7.950;2022-09-09T07:14:09;96471.84;;;14.54;100.00
55032;BME280;40928;51.076;7.950;2022-09-09T07:16:38;96473.75;;;14.53;100.00
55032;BME280;40928;51.076;7.950;2022-09-09T07:19:04;96483.34;;;14.70;100.00
55032;BME280;40928;51.076;7.950;2022-09-09T07:21:31;96474.91;;;14.82;100.00
55032;BME280;40928;51.076;7.950;2022-09-09T07:23:57;96473.19;;;14.96;100.00
55032;BME280;40928;51.076;7.950;2022-09-09T07:26:27;96473.91;;;15.07;100.00
55032;BME280;40928;51.076;7.950;2022-09-09T07:28:54;96476.34;;;15.09;98.89
55032;BME280;40928;51.076;7.950;2022-09-09T07:31:24;96477.91;;;15.15;98.18
55032;BME280;40928;51.076;7.950;2022-09-09T07:33:52;96480.16;;;15.02;97.79
55032;BME280;40928;51.076;7.950;2022-09-09T07:36:52;96484.22;;;15.00;99.24
55032;BME280;40928;51.076;7.950;2022-09-09T07:39:13;96483.38;;;14.99;98.72
55032;BME280;40928;51.076;7.950;2022-09-09T07:41:44;96486.59;;;15.01;99.06
55032;BME280;40928;51.076;7.950;2022-09-09T07:44:14;96491.00;;;14.92;98.78
55032;BME280;40928;51.076;7.950;2022-09-09T07:46:41;96491.69;;;15.03;98.48
55032;BME280;40928;51.076;7.950;2022-09-09T07:49:09;96497.34;;;15.06;98.87
55032;BME280;40928;51.076;7.950;2022-09-09T07:51:38;96502.38;;;15.13;97.32
55032;BME280;40928;51.076;7.950;2022-09-09T07:54:07;96495.97;;;15.09;96.98
55032;BME280;40928;51.076;7.950;2022-09-09T07:56:37;96503.44;;;15.17;98.01
55032;BME280;40928;51.076;7.950;2022-09-09T07:59:03;96499.34;;;15.25;95.79
55032;BME280;40928;51.076;7.950;2022-09-09T08:01:37;96502.31;;;15.23;94.88
55032;BME280;40928;51.076;7.950;2022-09-09T08:04:08;96498.72;;;15.33;95.30
55032;BME280;40928;51.076;7.950;2022-09-09T08:06:37;96506.09;;;15.52;96.40
55032;BME280;40928;51.076;7.950;2022-09-09T08:09:04;96499.72;;;15.72;94.21
55032;BME280;40928;51.076;7.950;2022-09-09T08:11:31;96509.84;;;15.80;92.85
55032;BME280;40928;51.076;7.950;2022-09-09T08:13:58;96508.19;;;15.84;92.22
55032;BME280;40928;51.076;7.950;2022-09-09T08:16:27;96511.09;;;15.93;88.92
55032;BME280;40928;51.076;7.950;2022-09-09T08:18:55;96498.31;;;16.04;88.08
55032;BME280;40928;51.076;7.950;2022-09-09T08:21:23;96500.25;;;16.23;87.15
55032;BME280;40928;51.076;7.950;2022-09-09T08:23:51;96517.78;;;16.20;86.82
55032;BME280;40928;51.076;7.950;2022-09-09T08:26:30;96510.69;;;16.29;87.55
55032;BME280;40928;51.076;7.950;2022-09-09T08:28:58;96504.06;;;16.41;86.50
55032;BME280;40928;51.076;7.950;2022-09-09T08:31:30;96505.91;;;16.46;84.43
55032;BME280;40928;51.076;7.950;2022-09-09T08:33:58;96503.41;;;16.30;85.46
55032;BME280;40928;51.076;7.950;2022-09-09T08:36:33;96503.94;;;16.51;83.28
55032;BME280;40928;51.076;7.950;2022-09-09T08:38:59;96505.53;;;16.52;80.86
55032;BME280;40928;51.076;7.950;2022-09-09T08:52:44;96515.91;;;16.21;80.91
55032;BME280;40928;51.076;7.950;2022-09-09T08:55:21;96518.03;;;16.24;81.77
55032;BME280;40928;51.076;7.950;2022-09-09T08:57:53;96520.22;;;16.22;81.24
55032;BME280;40928;51.076;7.950;2022-09-09T09:00:20;96521.16;;;16.31;80.30
55032;BME280;40928;51.076;7.950;2022-09-09T09:08:38;96510.94;;;16.90;77.75
55032;BME280;40928;51.076;7.950;2022-09-09T09:11:08;96515.75;;;16.94;78.21
55032;BME280;40928;51.076;7.950;2022-09-09T09:13:47;96515.84;;;16.88;77.68
55032;BME280;40928;51.076;7.950;2022-09-09T09:16:23;96517.66;;;16.93;77.40
55032;BME280;40928;51.076;7.950;2022-09-09T09:18:53;96521.75;;;16.90;77.73
55032;BME280;40928;51.076;7.950;2022-09-09T09:21:43;96517.00;;;17.20;77.44
55032;BME280;40928;51.076;7.950;2022-09-09T09:24:20;96512.13;;;17.56;77.14
55032;BME280;40928;51.076;7.950;2022-09-09T09:26:46;96514.16;;;17.78;76.53
55032;BME280;40928;51.076;7.950;2022-09-09T09:29:15;96522.34;;;17.73;73.80
55032;BME280;40928;51.076;7.950;2022-09-09T09:31:55;96539.19;;;17.50;73.37
55032;BME280;40928;51.076;7.950;2022-09-09T09:34:23;96526.13;;;17.25;72.06
55032;BME280;40928;51.076;7.950;2022-09-09T09:36:56;96522.22;;;17.64;72.32
55032;BME280;40928;51.076;7.950;2022-09-09T09:39:27;96517.28;;;18.27;70.25
55032;BME280;40928;51.076;7.950;2022-09-09T09:41:57;96513.53;;;18.79;69.21
55032;BME280;40928;51.076;7.950;2022-09-09T09:44:29;96506.16;;;18.93;67.94
55032;BME280;40928;51.076;7.950;2022-09-09T09:47:11;96516.91;;;18.84;67.34
55032;BME280;40928;51.076;7.950;2022-09-09T09:49:37;96509.59;;;18.85;63.64
55032;BME280;40928;51.076;7.950;2022-09-09T09:52:04;96522.06;;;18.58;64.11
55032;BME280;40928;51.076;7.950;2022-09-09T09:54:37;96509.69;;;18.29;67.40
55032;BME280;40928;51.076;7.950;2022-09-09T09:57:14;96505.25;;;18.47;66.18
55032;BME280;40928;51.076;7.950;2022-09-09T09:59:42;96511.13;;;19.37;64.24
55032;BME280;40928;51.076;7.950;2022-09-09T10:02:25;96502.09;;;20.04;61.99
55032;BME280;40928;51.076;7.950;2022-09-09T10:05:06;96504.78;;;20.45;57.16
55032;BME280;40928;51.076;7.950;2022-09-09T10:07:34;96515.28;;;20.37;58.65
55032;BME280;40928;51.076;7.950;2022-09-09T10:09:59;96522.03;;;20.08;58.40
55032;BME280;40928;51.076;7.950;2022-09-09T10:12:46;96507.19;;;19.20;61.12
55032;BME280;40928;51.076;7.950;2022-09-09T10:15:43;96506.25;;;19.25;61.69
55032;BME280;40928;51.076;7.950;2022-09-09T10:35:04;96520.28;;;18.90;62.55
55032;BME280;40928;51.076;7.950;2022-09-09T10:42:51;96505.50;;;21.12;56.04
55032;BME280;40928;51.076;7.950;2022-09-09T10:45:23;96517.00;;;21.18;54.54
55032;BME280;40928;51.076;7.950;2022-09-09T10:53:52;96504.19;;;21.53;53.73
55032;BME280;40928;51.076;7.950;2022-09-09T10:56:21;96503.34;;;22.18;52.01
55032;BME280;40928;51.076;7.950;2022-09-09T11:01:25;96501.16;;;22.02;50.85
55032;BME280;40928;51.076;7.950;2022-09-09T11:06:48;96507.69;;;22.70;48.31
55032;BME280;40928;51.076;7.950;2022-09-09T11:09:21;96492.66;;;22.73;47.21
55032;BME280;40928;51.076;7.950;2022-09-09T11:11:55;96490.81;;;23.86;44.30
55032;BME280;40928;51.076;7.950;2022-09-09T11:14:37;96492.50;;;23.11;45.64
55032;BME280;40928;51.076;7.950;2022-09-09T11:17:10;96497.50;;;22.28;47.43
55032;BME280;40928;51.076;7.950;2022-09-09T11:19:42;96496.34;;;21.52;49.18
55032;BME280;40928;51.076;7.950;2022-09-09T11:22:21;96501.59;;;21.57;49.01
55032;BME280;40928;51.076;7.950;2022-09-09T11:27:32;96494.84;;;21.81;47.74
55032;BME280;40928;51.076;7.950;2022-09-09T11:30:22;96501.28;;;21.50;47.63
55032;BME280;40928;51.076;7.950;2022-09-09T11:33:04;96500.16;;;21.68;47.39
55032;BME280;40928;51.076;7.950;2022-09-09T11:41:01;96486.97;;;20.12;51.29
55032;BME280;40928;51.076;7.950;2022-09-09T11:43:31;96491.06;;;19.92;52.32
55032;BME280;40928;51.076;7.950;2022-09-09T11:46:02;96494.88;;;19.91;51.91
55032;BME280;40928;51.076;7.950;2022-09-09T11:48:36;96491.75;;;19.75;53.66
55032;BME280;40928;51.076;7.950;2022-09-09T11:51:06;96486.59;;;19.65;53.15
55032;BME280;40928;51.076;7.950;2022-09-09T11:53:34;96485.63;;;19.60;53.46
55032;BME280;40928;51.076;7.950;2022-09-09T11:56:12;96483.88;;;19.65;53.41
55032;BME280;40928;51.076;7.950;2022-09-09T11:59:05;96486.59;;;19.65;53.13
55032;BME280;40928;51.076;7.950;2022-09-09T12:01:41;96481.72;;;19.44;53.96
55032;BME280;40928;51.076;7.950;2022-09-09T12:04:21;96486.94;;;19.40;54.95
55032;BME280;40928;51.076;7.950;2022-09-09T12:12:26;96476.34;;;22.04;49.30
55032;BME280;40928;51.076;7.950;2022-09-09T12:15:21;96479.63;;;23.00;46.15
55032;BME280;40928;51.076;7.950;2022-09-09T12:17:49;96471.50;;;23.33;44.21
55032;BME280;40928;51.076;7.950;2022-09-09T12:31:44;96466.28;;;20.16;51.27
55032;BME280;40928;51.076;7.950;2022-09-09T12:34:30;96472.19;;;20.27;52.03
55032;BME280;40928;51.076;7.950;2022-09-09T12:37:04;96473.19;;;20.58;51.08
55032;BME280;40928;51.076;7.950;2022-09-09T12:39:44;96460.28;;;21.34;49.15
55032;BME280;40928;51.076;7.950;2022-09-09T12:42:19;96454.69;;;22.25;47.26
55032;BME280;40928;51.076;7.950;2022-09-09T12:44:56;96457.75;;;21.85;47.17
55032;BME280;40928;51.076;7.950;2022-09-09T12:47:38;96459.72;;;21.58;48.27
55032;BME280;40928;51.076;7.950;2022-09-09T12:50:35;96458.91;;;20.83;48.10
55032;BME280;40928;51.076;7.950;2022-09-09T12:53:10;96466.66;;;21.47;47.44
55032;BME280;40928;51.076;7.950;2022-09-09T12:55:50;96459.34;;;21.12;48.43
55032;BME280;40928;51.076;7.950;2022-09-09T12:58:18;96466.97;;;20.39;50.37
55032;BME280;40928;51.076;7.950;2022-09-09T13:00:52;96459.75;;;19.77;52.15
55032;BME280;40928;51.076;7.950;2022-09-09T13:03:21;96459.78;;;19.54;53.67
55032;BME280;40928;51.076;7.950;2022-09-09T13:05:48;96466.59;;;19.43;54.47
55032;BME280;40928;51.076;7.950;2022-09-09T13:08:15;96467.59;;;19.24;54.55
55032;BME280;40928;51.076;7.950;2022-09-09T13:11:00;96467.59;;;19.24;54.58
55032;BME280;40928;51.076;7.950;2022-09-09T13:13:35;96466.47;;;19.25;54.82
55032;BME280;40928;51.076;7.950;2022-09-09T13:16:02;96468.47;;;19.42;56.39
55032;BME280;40928;51.076;7.950;2022-09-09T13:18:33;96466.19;;;19.58;58.88
55032;BME280;40928;51.076;7.950;2022-09-09T13:20:59;96457.56;;;19.56;57.22
55032;BME280;40928;51.076;7.950;2022-09-09T13:23:35;96450.31;;;19.74;57.88
55032;BME280;40928;51.076;7.950;2022-09-09T13:26:06;96437.50;;;19.89;59.01
55032;BME280;40928;51.076;7.950;2022-09-09T13:28:44;96438.38;;;20.16;56.62
55032;BME280;40928;51.076;7.950;2022-09-09T13:31:28;96448.00;;;20.48;54.82
55032;BME280;40928;51.076;7.950;2022-09-09T13:33:53;96434.97;;;20.77;54.28
55032;BME280;40928;51.076;7.950;2022-09-09T13:36:34;96445.94;;;20.72;52.05
55032;BME280;40928;51.076;7.950;2022-09-09T13:39:02;96421.38;;;20.68;50.71
55032;BME280;40928;51.076;7.950;2022-09-09T13:41:35;96431.41;;;20.59;51.21
55032;BME280;40928;51.076;7.950;2022-09-09T13:44:02;96429.31;;;20.73;51.23
55032;BME280;40928;51.076;7.950;2022-09-09T13:46:37;96429.31;;;20.38;49.84
55032;BME280;40928;51.076;7.950;2022-09-09T13:51:46;96440.38;;;20.01;50.31
55032;BME280;40928;51.076;7.950;2022-09-09T13:54:15;96430.41;;;19.79;50.62
55032;BME280;40928;51.076;7.950;2022-09-09T13:56:41;96441.53;;;19.69;51.12
55032;BME280;40928;51.076;7.950;2022-09-09T13:59:12;96437.34;;;19.62;51.33
55032;BME280;40928;51.076;7.950;2022-09-09T14:01:39;96431.19;;;19.39;52.26
55032;BME280;40928;51.076;7.950;2022-09-09T14:04:04;96428.69;;;19.43;52.54
55032;BME280;40928;51.076;7.950;2022-09-09T14:06:34;96467.47;;;19.29;52.49
55032;BME280;40928;51.076;7.950;2022-09-09T14:09:07;96435.28;;;19.28;52.95
55032;BME280;40928;51.076;7.950;2022-09-09T14:11:33;96419.28;;;19.49;53.36
55032;BME280;40928;51.076;7.950;2022-09-09T14:13:59;96423.31;;;19.52;52.80
55032;BME280;40928;51.076;7.950;2022-09-09T14:16:26;96428.13;;;19.63;52.00
55032;BME280;40928;51.076;7.950;2022-09-09T14:18:53;96427.03;;;19.73;51.71
55032;BME280;40928;51.076;7.950;2022-09-09T14:21:18;96432.25;;;19.92;52.06
55032;BME280;40928;51.076;7.950;2022-09-09T14:23:44;96428.13;;;20.04;51.84
55032;BME280;40928;51.076;7.950;2022-09-09T14:26:09;96427.97;;;20.00;51.71
55032;BME280;40928;51.076;7.950;2022-09-09T14:28:36;96428.50;;;19.80;51.80
55032;BME280;40928;51.076;7.950;2022-09-09T14:31:03;96440.75;;;19.68;51.31
55032;BME280;40928;51.076;7.950;2022-09-09T14:33:30;96442.25;;;19.52;52.00
55032;BME280;40928;51.076;7.950;2022-09-09T14:35:57;96445.88;;;19.38;52.90
55032;BME280;40928;51.076;7.950;2022-09-09T14:38:24;96433.78;;;19.13;54.17
55032;BME280;40928;51.076;7.950;2022-09-09T14:40:49;96435.72;;;19.21;54.15
55032;BME280;40928;51.076;7.950;2022-09-09T14:43:15;96432.28;;;19.07;54.16
55032;BME280;40928;51.076;7.950;2022-09-09T14:45:40;96434.56;;;19.13;54.52
55032;BME280;40928;51.076;7.950;2022-09-09T14:48:06;96423.38;;;19.06;54.95
55032;BME280;40928;51.076;7.950;2022-09-09T14:50:31;96433.38;;;19.06;55.64
55032;BME280;40928;51.076;7.950;2022-09-09T14:52:57;96431.97;;;19.08;55.91
55032;BME280;40928;51.076;7.950;2022-09-09T14:55:22;96430.34;;;18.98;55.95
55032;BME280;40928;51.076;7.950;2022-09-09T14:57:48;96435.00;;;18.93;56.21
55032;BME280;40928;51.076;7.950;2022-09-09T15:00:17;96445.63;;;19.03;57.00
55032;BME280;40928;51.076;7.950;2022-09-09T15:02:42;96441.56;;;18.92;56.03
55032;BME280;40928;51.076;7.950;2022-09-09T15:05:08;96435.09;;;18.79;56.56
55032;BME280;40928;51.076;7.950;2022-09-09T15:07:34;96448.06;;;18.91;55.98
55032;BME280;40928;51.076;7.950;2022-09-09T15:09:59;96448.91;;;18.77;57.20
55032;BME280;40928;51.076;7.950;2022-09-09T15:12:25;96437.13;;;18.73;57.42
55032;BME280;40928;51.076;7.950;2022-09-09T15:14:50;96440.25;;;18.66;57.06
55032;BME280;40928;51.076;7.950;2022-09-09T15:17:16;96446.88;;;18.60;57.31
55032;BME280;40928;51.076;7.950;2022-09-09T15:19:41;96444.59;;;18.53;57.26